Time;durP1;ratioP1;P1;durP2;ratioP2;P2;SDS_P1;SDS_P2;PMS_P1;PMS_P2;Temp;Humidity;BMP_temperature;BMP_pressure;BME280_temperature;BME280_humidity;BME280_pressure;Samples;Min_cycle;Max_cycle;Signal;HPM_P1;HPM_P2
2023/03/11 00:01:52;;;;;;;1.17;1.17;;;;;;;;;;4943526;28;20197;-71
2023/03/11 00:04:17;;;;;;;1.27;1.27;;;;;;;;;;4949043;28;20222;-72
2023/03/11 00:06:43;;;;;;;1.20;1.20;;;;;;;;;;4956280;28;20613;-72
2023/03/11 00:09:09;;;;;;;1.20;1.20;;;;;;;;;;4962278;28;20229;-72
2023/03/11 00:11:35;;;;;;;1.10;1.10;;;;;;;;;;4963579;28;20200;-73
2023/03/11 00:14:01;;;;;;;1.10;1.10;;;;;;;;;;4967039;28;20193;-72
2023/03/11 00:16:27;;;;;;;1.10;1.10;;;;;;;;;;4967113;28;20698;-72
2023/03/11 00:18:53;;;;;;;1.30;1.30;;;;;;;;;;4972955;28;20197;-72
2023/03/11 00:21:19;;;;;;;1.00;1.00;;;;;;;;;;4973762;28;20205;-71
2023/03/11 00:23:45;;;;;;;1.30;1.30;;;;;;;;;;4972250;28;20673;-74
2023/03/11 00:26:11;;;;;;;1.23;1.23;;;;;;;;;;4945182;28;20221;-74
2023/03/11 00:28:37;;;;;;;1.10;1.10;;;;;;;;;;4999645;28;20232;-74
2023/03/11 00:31:03;;;;;;;1.20;1.20;;;;;;;;;;4975055;28;20194;-73
2023/03/11 00:33:29;;;;;;;1.10;1.10;;;;;;;;;;4994335;28;20277;-73
2023/03/11 00:35:55;;;;;;;1.20;1.20;;;;;;;;;;4996486;28;20277;-74
2023/03/11 00:38:21;;;;;;;1.10;1.10;;;;;;;;;;4994539;28;20201;-73
2023/03/11 00:40:47;;;;;;;1.13;1.13;;;;;;;;;;4996172;28;20484;-72
2023/03/11 00:43:13;;;;;;;1.10;1.10;;;;;;;;;;4987550;28;20182;-73
2023/03/11 00:45:39;;;;;;;1.20;1.20;;;;;;;;;;4994385;28;20225;-73
2023/03/11 00:48:05;;;;;;;1.30;1.30;;;;;;;;;;4995121;28;20359;-73
2023/03/11 00:50:32;;;;;;;1.30;1.30;;;;;;;;;;4974956;28;20289;-73
2023/03/11 00:52:58;;;;;;;1.30;1.30;;;;;;;;;;4992605;28;20232;-73
2023/03/11 00:55:28;;;;;;;1.63;1.63;;;;;;;;;;4999011;28;20555;-73
2023/03/11 00:57:56;;;;;;;1.40;1.40;;;;;;;;;;4989052;28;20209;-73
2023/03/11 01:00:22;;;;;;;1.30;1.30;;;;;;;;;;4991942;28;20205;-73
2023/03/11 01:02:48;;;;;;;1.40;1.40;;;;;;;;;;4996068;28;20197;-73
2023/03/11 01:05:14;;;;;;;1.40;1.40;;;;;;;;;;4972892;28;20186;-73
2023/03/11 01:07:40;;;;;;;1.33;1.33;;;;;;;;;;4996017;28;20237;-73
2023/03/11 01:10:06;;;;;;;1.20;1.20;;;;;;;;;;4978307;28;20194;-73
2023/03/11 01:12:32;;;;;;;1.20;1.20;;;;;;;;;;4988881;28;20583;-73
2023/03/11 01:14:58;;;;;;;1.20;1.20;;;;;;;;;;4991967;28;20192;-74
2023/03/11 01:17:24;;;;;;;1.27;1.27;;;;;;;;;;4982398;28;20558;-73
2023/03/11 01:19:50;;;;;;;1.20;1.20;;;;;;;;;;4976279;28;21922;-73
2023/03/11 01:22:16;;;;;;;1.20;1.20;;;;;;;;;;4999233;28;20199;-73
2023/03/11 01:24:42;;;;;;;1.13;1.13;;;;;;;;;;4998822;28;20230;-73
2023/03/11 01:27:08;;;;;;;1.20;1.20;;;;;;;;;;4978552;28;20186;-74
2023/03/11 01:29:34;;;;;;;1.10;1.10;;;;;;;;;;4990495;28;20218;-73
2023/03/11 01:32:00;;;;;;;1.20;1.20;;;;;;;;;;4997402;28;20287;-73
2023/03/11 01:34:26;;;;;;;1.40;1.40;;;;;;;;;;4989780;28;20197;-73
2023/03/11 01:36:51;;;;;;;1.30;1.30;;;;;;;;;;4996327;28;20194;-73
2023/03/11 01:39:17;;;;;;;1.20;1.20;;;;;;;;;;4993630;28;20410;-71
2023/03/11 01:41:43;;;;;;;1.23;1.23;;;;;;;;;;4989250;28;20288;-73
2023/03/11 01:44:12;;;;;;;1.20;1.20;;;;;;;;;;4995166;28;21160;-73
2023/03/11 01:46:57;;;;;;;1.10;1.10;;;;;;;;;;4989440;28;20642;-73
2023/03/11 01:49:23;;;;;;;1.27;1.27;;;;;;;;;;4993244;28;20210;-73
2023/03/11 01:51:53;;;;;;;1.30;1.30;;;;;;;;;;4986285;28;20335;-73
2023/03/11 01:54:32;;;;;;;1.20;1.20;;;;;;;;;;4982104;28;20194;-73
2023/03/11 01:56:58;;;;;;;1.20;1.20;;;;;;;;;;4972627;28;20190;-73
2023/03/11 01:59:25;;;;;;;1.30;1.30;;;;;;;;;;4988267;28;21124;-72
2023/03/11 02:01:57;;;;;;;1.40;1.40;;;;;;;;;;4970665;28;20878;-73
2023/03/11 02:04:23;;;;;;;1.30;1.30;;;;;;;;;;4982249;28;20206;-73
2023/03/11 02:06:48;;;;;;;1.30;1.30;;;;;;;;;;4985179;28;21464;-72
2023/03/11 02:09:14;;;;;;;1.30;1.30;;;;;;;;;;4985074;28;20237;-72
2023/03/11 02:11:41;;;;;;;1.30;1.30;;;;;;;;;;4989842;28;20220;-72
2023/03/11 02:14:07;;;;;;;1.50;1.50;;;;;;;;;;4990832;28;20181;-73
2023/03/11 02:16:33;;;;;;;1.20;1.20;;;;;;;;;;4991644;28;20347;-73
2023/03/11 02:19:00;;;;;;;1.10;1.10;;;;;;;;;;4994144;28;20908;-73
2023/03/11 02:21:27;;;;;;;1.20;1.20;;;;;;;;;;4986917;28;20205;-73
2023/03/11 02:23:57;;;;;;;1.10;1.10;;;;;;;;;;4976087;28;20652;-73
2023/03/11 02:26:36;;;;;;;1.60;1.60;;;;;;;;;;4977235;28;20194;-73
2023/03/11 02:29:02;;;;;;;1.40;1.40;;;;;;;;;;4975635;28;20225;-74
2023/03/11 02:31:28;;;;;;;1.63;1.63;;;;;;;;;;4969628;28;20244;-73
2023/03/11 02:33:54;;;;;;;1.40;1.40;;;;;;;;;;4987094;28;20666;-73
2023/03/11 02:36:33;;;;;;;1.40;1.40;;;;;;;;;;4990590;28;20194;-73
2023/03/11 02:38:59;;;;;;;1.37;1.37;;;;;;;;;;4976226;28;20203;-73
2023/03/11 02:41:25;;;;;;;1.50;1.50;;;;;;;;;;4987814;28;20193;-72
2023/03/11 02:43:50;;;;;;;1.40;1.40;;;;;;;;;;4994545;28;20225;-73
2023/03/11 02:46:16;;;;;;;1.60;1.60;;;;;;;;;;4974990;28;20194;-73
2023/03/11 02:48:42;;;;;;;1.60;1.60;;;;;;;;;;4993350;28;20649;-73
2023/03/11 02:51:08;;;;;;;1.50;1.50;;;;;;;;;;4991054;28;20225;-73
2023/03/11 02:53:35;;;;;;;1.43;1.43;;;;;;;;;;4990123;28;20202;-73
2023/03/11 02:56:01;;;;;;;1.00;1.00;;;;;;;;;;4976573;28;20185;-73
2023/03/11 02:58:27;;;;;;;1.00;1.00;;;;;;;;;;4987362;28;20193;-73
2023/03/11 03:00:53;;;;;;;1.07;1.07;;;;;;;;;;4988478;28;20332;-73
2023/03/11 03:03:19;;;;;;;1.37;1.37;;;;;;;;;;4996566;28;20190;-72
2023/03/11 03:05:45;;;;;;;1.50;1.50;;;;;;;;;;4993267;28;20626;-72
2023/03/11 03:08:11;;;;;;;1.70;1.70;;;;;;;;;;4996709;28;20237;-73
2023/03/11 03:10:37;;;;;;;1.40;1.40;;;;;;;;;;4992039;28;20181;-73
2023/03/11 03:13:03;;;;;;;1.50;1.50;;;;;;;;;;4996376;28;20301;-73
2023/03/11 03:15:29;;;;;;;1.50;1.50;;;;;;;;;;4992562;28;20333;-73
2023/03/11 03:17:55;;;;;;;1.40;1.40;;;;;;;;;;4990503;28;20219;-73
2023/03/11 03:20:21;;;;;;;1.60;1.60;;;;;;;;;;4991357;28;20199;-73
2023/03/11 03:22:47;;;;;;;1.40;1.40;;;;;;;;;;4990090;28;20216;-72
2023/03/11 03:25:13;;;;;;;1.40;1.40;;;;;;;;;;4980745;28;20194;-73
2023/03/11 03:27:39;;;;;;;1.30;1.30;;;;;;;;;;4981512;28;20937;-73
2023/03/11 03:30:05;;;;;;;1.53;1.53;;;;;;;;;;4996759;28;20194;-73
2023/03/11 03:32:31;;;;;;;1.50;1.50;;;;;;;;;;4991600;28;20198;-73
2023/03/11 03:34:58;;;;;;;1.60;1.60;;;;;;;;;;4996705;28;20189;-73
2023/03/11 03:37:25;;;;;;;1.00;1.00;;;;;;;;;;4990928;28;20281;-72
2023/03/11 03:39:51;;;;;;;0.80;0.80;;;;;;;;;;4975953;28;20202;-73
2023/03/11 03:42:17;;;;;;;1.00;1.00;;;;;;;;;;4991668;28;20252;-73
2023/03/11 03:44:43;;;;;;;0.90;0.90;;;;;;;;;;4991555;28;20200;-73
2023/03/11 03:47:09;;;;;;;1.00;1.00;;;;;;;;;;4993270;28;20185;-72
2023/03/11 03:49:35;;;;;;;0.70;0.70;;;;;;;;;;4994709;28;20592;-73
2023/03/11 03:52:01;;;;;;;0.93;0.93;;;;;;;;;;4994941;28;20677;-73
2023/03/11 03:54:27;;;;;;;1.00;1.00;;;;;;;;;;4996341;28;20185;-73
2023/03/11 03:56:53;;;;;;;1.10;1.10;;;;;;;;;;4975437;28;20190;-73
2023/03/11 03:59:18;;;;;;;1.23;1.23;;;;;;;;;;4980387;28;20200;-73
2023/03/11 04:01:44;;;;;;;1.40;1.40;;;;;;;;;;4995538;28;20236;-73
2023/03/11 04:04:10;;;;;;;1.40;1.40;;;;;;;;;;4991309;28;20185;-73
2023/03/11 04:06:36;;;;;;;1.20;1.20;;;;;;;;;;4993623;28;20308;-72
2023/03/11 04:09:02;;;;;;;0.90;0.90;;;;;;;;;;4987183;28;20220;-72
2023/03/11 04:11:28;;;;;;;1.00;1.00;;;;;;;;;;4995615;28;20263;-73
2023/03/11 04:13:55;;;;;;;0.90;0.90;;;;;;;;;;4990952;28;20246;-74
2023/03/11 04:16:21;;;;;;;1.00;1.00;;;;;;;;;;4999452;28;20680;-73
2023/03/11 04:18:47;;;;;;;0.97;0.97;;;;;;;;;;4994629;28;20197;-72
2023/03/11 04:21:13;;;;;;;1.00;1.00;;;;;;;;;;4993352;28;20196;-72
2023/03/11 04:23:39;;;;;;;0.90;0.90;;;;;;;;;;4993385;28;20193;-73
2023/03/11 04:26:05;;;;;;;0.90;0.90;;;;;;;;;;4993082;28;21546;-71
2023/03/11 04:28:31;;;;;;;1.00;1.00;;;;;;;;;;4987618;28;20400;-71
2023/03/11 04:30:57;;;;;;;1.00;1.00;;;;;;;;;;4995932;28;20194;-72
2023/03/11 04:33:23;;;;;;;0.97;0.97;;;;;;;;;;4993739;28;20201;-71
2023/03/11 04:35:49;;;;;;;1.00;1.00;;;;;;;;;;4987465;28;20700;-71
2023/03/11 04:38:15;;;;;;;1.10;1.10;;;;;;;;;;4991105;28;20197;-73
2023/03/11 04:40:41;;;;;;;1.00;1.00;;;;;;;;;;4986695;28;20194;-71
2023/03/11 04:43:07;;;;;;;0.90;0.90;;;;;;;;;;4982592;28;20190;-72
2023/03/11 04:45:35;;;;;;;0.90;0.90;;;;;;;;;;4993809;28;20210;-71
2023/03/11 04:48:01;;;;;;;1.00;1.00;;;;;;;;;;4991024;28;20214;-72
2023/03/11 04:50:27;;;;;;;0.97;0.97;;;;;;;;;;4998024;28;20186;-71
2023/03/11 04:52:53;;;;;;;1.10;1.10;;;;;;;;;;4975546;28;20249;-70
2023/03/11 04:55:19;;;;;;;0.80;0.80;;;;;;;;;;4996618;28;20205;-71
2023/03/11 04:57:45;;;;;;;1.00;1.00;;;;;;;;;;4996911;28;20209;-71
2023/03/11 05:00:11;;;;;;;1.00;1.00;;;;;;;;;;4991417;28;20193;-71
2023/03/11 05:02:37;;;;;;;1.57;1.57;;;;;;;;;;4981924;28;20182;-71
2023/03/11 05:05:03;;;;;;;1.60;1.60;;;;;;;;;;4994339;28;20656;-71
2023/03/11 05:07:29;;;;;;;1.50;1.50;;;;;;;;;;4991746;28;20221;-71
2023/03/11 05:09:55;;;;;;;1.70;1.70;;;;;;;;;;4992299;28;20228;-71
2023/03/11 05:12:21;;;;;;;1.50;1.50;;;;;;;;;;4977170;28;20596;-71
2023/03/11 05:14:47;;;;;;;1.60;1.60;;;;;;;;;;4994677;28;20189;-70
2023/03/11 05:17:13;;;;;;;1.47;1.47;;;;;;;;;;4989576;28;20221;-72
2023/03/11 05:19:39;;;;;;;1.40;1.40;;;;;;;;;;4975091;28;20654;-72
2023/03/11 05:22:06;;;;;;;1.40;1.40;;;;;;;;;;4989079;28;20540;-71
2023/03/11 05:24:32;;;;;;;1.20;1.20;;;;;;;;;;4991060;28;20960;-71
2023/03/11 05:26:58;;;;;;;1.50;1.50;;;;;;;;;;4993836;28;20550;-71
2023/03/11 05:29:24;;;;;;;1.50;1.50;;;;;;;;;;4977878;28;20217;-71
2023/03/11 05:31:50;;;;;;;1.20;1.20;;;;;;;;;;4959982;28;20194;-72
2023/03/11 05:34:16;;;;;;;1.40;1.40;;;;;;;;;;4999076;28;20655;-72
2023/03/11 05:36:42;;;;;;;1.40;1.40;;;;;;;;;;4993899;28;21091;-71
2023/03/11 05:39:08;;;;;;;1.30;1.30;;;;;;;;;;4990898;28;20318;-71
2023/03/11 05:41:34;;;;;;;1.37;1.37;;;;;;;;;;4995947;28;20658;-71
2023/03/11 05:43:59;;;;;;;1.40;1.40;;;;;;;;;;4991877;28;20396;-71
2023/03/11 05:46:25;;;;;;;1.40;1.40;;;;;;;;;;4991659;28;20194;-70
2023/03/11 05:48:51;;;;;;;1.40;1.40;;;;;;;;;;4994630;28;20217;-70
2023/03/11 05:51:17;;;;;;;1.60;1.60;;;;;;;;;;4993766;28;20189;-72
2023/03/11 05:53:47;;;;;;;1.60;1.60;;;;;;;;;;4993069;28;20276;-73
2023/03/11 05:56:13;;;;;;;1.40;1.40;;;;;;;;;;4997129;28;20185;-73
2023/03/11 05:58:38;;;;;;;1.40;1.40;;;;;;;;;;4988278;28;20209;-73
2023/03/11 06:01:09;;;;;;;1.67;1.67;;;;;;;;;;4986564;28;20200;-72
2023/03/11 06:03:35;;;;;;;1.70;1.70;;;;;;;;;;4976069;28;20193;-73
2023/03/11 06:06:01;;;;;;;1.40;1.40;;;;;;;;;;4992865;28;20241;-73
2023/03/11 06:08:27;;;;;;;1.50;1.50;;;;;;;;;;4974948;28;20741;-73
2023/03/11 06:10:53;;;;;;;1.40;1.40;;;;;;;;;;4994223;28;20264;-73
2023/03/11 06:13:19;;;;;;;1.50;1.50;;;;;;;;;;4991784;28;20189;-73
2023/03/11 06:15:44;;;;;;;1.40;1.40;;;;;;;;;;4993392;28;20193;-72
2023/03/11 06:18:10;;;;;;;1.50;1.50;;;;;;;;;;4987607;28;20193;-72
2023/03/11 06:20:36;;;;;;;1.53;1.53;;;;;;;;;;4986805;28;20207;-73
2023/03/11 06:23:02;;;;;;;1.30;1.30;;;;;;;;;;4983184;28;20194;-73
2023/03/11 06:25:28;;;;;;;1.50;1.50;;;;;;;;;;4990961;28;20220;-73
2023/03/11 06:27:54;;;;;;;1.33;1.33;;;;;;;;;;4993390;28;20190;-73
2023/03/11 06:30:20;;;;;;;1.17;1.17;;;;;;;;;;4985706;28;20198;-73
2023/03/11 06:32:46;;;;;;;1.40;1.40;;;;;;;;;;4988703;28;20196;-72
2023/03/11 06:35:12;;;;;;;1.20;1.20;;;;;;;;;;4989282;28;20186;-73
2023/03/11 06:37:38;;;;;;;1.30;1.30;;;;;;;;;;4980144;28;20189;-73
2023/03/11 06:40:08;;;;;;;1.30;1.30;;;;;;;;;;4990111;28;20205;-72
2023/03/11 06:42:34;;;;;;;1.20;1.20;;;;;;;;;;4995206;28;20609;-73
2023/03/11 06:45:00;;;;;;;1.20;1.20;;;;;;;;;;4994993;28;20257;-73
2023/03/11 06:47:26;;;;;;;1.40;1.40;;;;;;;;;;4996133;28;20198;-72
2023/03/11 06:49:52;;;;;;;1.37;1.37;;;;;;;;;;4996865;28;20658;-73
2023/03/11 06:52:18;;;;;;;1.40;1.40;;;;;;;;;;4974950;28;20705;-75
2023/03/11 06:54:44;;;;;;;1.20;1.20;;;;;;;;;;4997728;28;20197;-75
2023/03/11 06:57:10;;;;;;;1.20;1.20;;;;;;;;;;4982248;28;20645;-74
2023/03/11 06:59:36;;;;;;;1.30;1.30;;;;;;;;;;4987244;28;20243;-75
2023/03/11 07:02:02;;;;;;;1.30;1.30;;;;;;;;;;5003271;28;20239;-75
2023/03/11 07:04:29;;;;;;;1.20;1.20;;;;;;;;;;4989023;28;20194;-74
2023/03/11 07:06:55;;;;;;;1.40;1.40;;;;;;;;;;4996053;28;20759;-76
2023/03/11 07:09:21;;;;;;;1.50;1.50;;;;;;;;;;4964250;28;20224;-72
2023/03/11 07:11:48;;;;;;;1.33;1.33;;;;;;;;;;4979519;28;20186;-76
2023/03/11 07:14:14;;;;;;;1.40;1.40;;;;;;;;;;4985395;28;21566;-76
2023/03/11 07:16:40;;;;;;;1.43;1.43;;;;;;;;;;4991875;28;20624;-79
2023/03/11 07:19:06;;;;;;;0.90;0.90;;;;;;;;;;4996822;28;20214;-77
2023/03/11 07:21:32;;;;;;;1.00;1.00;;;;;;;;;;4989430;28;20577;-76
2023/03/11 07:23:59;;;;;;;1.10;1.10;;;;;;;;;;4957218;28;20736;-76
2023/03/11 07:26:25;;;;;;;1.40;1.40;;;;;;;;;;4962513;28;20760;-77
2023/03/11 07:28:51;;;;;;;1.30;1.30;;;;;;;;;;4961752;28;20304;-76
2023/03/11 07:31:18;;;;;;;1.20;1.20;;;;;;;;;;4987557;28;20561;-77
2023/03/11 07:33:44;;;;;;;1.40;1.40;;;;;;;;;;4995620;28;20251;-76
2023/03/11 07:36:11;;;;;;;1.30;1.30;;;;;;;;;;4995546;28;20639;-77
2023/03/11 07:38:37;;;;;;;1.60;1.60;;;;;;;;;;4977802;28;20241;-77
2023/03/11 07:41:03;;;;;;;1.30;1.30;;;;;;;;;;4977966;28;20269;-77
2023/03/11 07:43:29;;;;;;;1.20;1.20;;;;;;;;;;4981417;28;20193;-77
2023/03/11 07:46:15;;;;;;;1.30;1.30;;;;;;;;;;4977797;28;20516;-77
2023/03/11 07:48:41;;;;;;;1.30;1.30;;;;;;;;;;4966219;28;20253;-77
2023/03/11 07:51:09;;;;;;;1.30;1.30;;;;;;;;;;4978906;28;20207;-76
2023/03/11 07:53:35;;;;;;;1.40;1.40;;;;;;;;;;4969917;28;20919;-76
2023/03/11 07:56:01;;;;;;;1.20;1.20;;;;;;;;;;4979185;28;20183;-75
2023/03/11 07:58:27;;;;;;;1.10;1.10;;;;;;;;;;4977789;28;20202;-76
2023/03/11 08:00:55;;;;;;;1.10;1.10;;;;;;;;;;4973904;28;20198;-76
2023/03/11 08:03:21;;;;;;;1.13;1.13;;;;;;;;;;4981661;28;21134;-74
2023/03/11 08:05:47;;;;;;;1.10;1.10;;;;;;;;;;4974872;28;20193;-74
2023/03/11 08:08:13;;;;;;;1.20;1.20;;;;;;;;;;4992649;28;20209;-74
2023/03/11 08:10:39;;;;;;;1.30;1.30;;;;;;;;;;4970612;28;20197;-74
2023/03/11 08:13:05;;;;;;;1.50;1.50;;;;;;;;;;4980188;28;20186;-74
2023/03/11 08:15:31;;;;;;;1.40;1.40;;;;;;;;;;4997856;28;20198;-74
2023/03/11 08:17:57;;;;;;;1.50;1.50;;;;;;;;;;4993090;28;20190;-75
2023/03/11 08:20:23;;;;;;;1.50;1.50;;;;;;;;;;4980474;28;20189;-74
2023/03/11 08:22:49;;;;;;;1.50;1.50;;;;;;;;;;4998603;28;20226;-74
2023/03/11 08:25:14;;;;;;;1.53;1.53;;;;;;;;;;4975689;28;20638;-75
2023/03/11 08:27:41;;;;;;;1.50;1.50;;;;;;;;;;4997150;28;20217;-75
2023/03/11 08:30:07;;;;;;;1.50;1.50;;;;;;;;;;4996826;28;20221;-74
2023/03/11 08:32:33;;;;;;;1.60;1.60;;;;;;;;;;4985029;28;20277;-75
2023/03/11 08:34:59;;;;;;;1.50;1.50;;;;;;;;;;4984677;28;20198;-75
2023/03/11 08:37:25;;;;;;;1.50;1.50;;;;;;;;;;4976013;28;20256;-74
2023/03/11 08:39:51;;;;;;;1.70;1.70;;;;;;;;;;4988354;28;20186;-74
2023/03/11 08:42:18;;;;;;;1.40;1.40;;;;;;;;;;4981733;28;20213;-74
2023/03/11 08:44:44;;;;;;;1.70;1.70;;;;;;;;;;4990238;28;20194;-75
2023/03/11 08:47:10;;;;;;;1.57;1.57;;;;;;;;;;4983034;28;20205;-75
2023/03/11 08:49:37;;;;;;;1.60;1.60;;;;;;;;;;4991248;28;20221;-75
2023/03/11 08:52:03;;;;;;;1.50;1.50;;;;;;;;;;4982600;28;20200;-74
2023/03/11 08:54:29;;;;;;;1.50;1.50;;;;;;;;;;4986771;28;20296;-74
2023/03/11 08:56:55;;;;;;;1.50;1.50;;;;;;;;;;4993761;28;20705;-74
2023/03/11 08:59:20;;;;;;;1.93;1.83;;;;;;;;;;4991084;28;20222;-74
2023/03/11 09:01:46;;;;;;;1.60;1.60;;;;;;;;;;4981930;28;20190;-74
2023/03/11 09:04:12;;;;;;;1.70;1.70;;;;;;;;;;4958485;28;20795;-75
2023/03/11 09:06:44;;;;;;;1.83;1.73;;;;;;;;;;4985077;28;20249;-74
2023/03/11 09:09:11;;;;;;;1.30;1.30;;;;;;;;;;4972916;28;20202;-74
2023/03/11 09:11:37;;;;;;;1.80;1.70;;;;;;;;;;4970630;28;20198;-75
2023/03/11 09:14:03;;;;;;;1.80;1.70;;;;;;;;;;4977749;28;20232;-73
2023/03/11 09:16:29;;;;;;;2.00;1.90;;;;;;;;;;4977816;28;20186;-75
2023/03/11 09:18:55;;;;;;;1.90;1.80;;;;;;;;;;4988470;28;20202;-74
2023/03/11 09:21:21;;;;;;;1.90;1.80;;;;;;;;;;4990901;28;20284;-74
2023/03/11 09:23:47;;;;;;;1.57;1.57;;;;;;;;;;4981583;28;20213;-75
2023/03/11 09:26:13;;;;;;;1.63;1.63;;;;;;;;;;4992253;28;20647;-74
2023/03/11 09:28:40;;;;;;;1.70;1.70;;;;;;;;;;4976667;28;20550;-74
2023/03/11 09:31:06;;;;;;;1.53;1.53;;;;;;;;;;4976352;28;20240;-74
2023/03/11 09:33:35;;;;;;;1.90;1.80;;;;;;;;;;4969755;28;20195;-75
2023/03/11 09:36:01;;;;;;;2.10;2.00;;;;;;;;;;4992118;28;20345;-74
2023/03/11 09:38:27;;;;;;;1.90;1.80;;;;;;;;;;4993311;28;20874;-74
2023/03/11 09:40:57;;;;;;;1.90;1.80;;;;;;;;;;4962996;28;20293;-74
2023/03/11 09:43:26;;;;;;;1.50;1.50;;;;;;;;;;4995491;28;20236;-74
2023/03/11 09:45:53;;;;;;;1.50;1.50;;;;;;;;;;4972383;28;20212;-74
2023/03/11 09:48:33;;;;;;;1.67;1.63;;;;;;;;;;4978443;28;20212;-73
2023/03/11 09:51:00;;;;;;;1.70;1.70;;;;;;;;;;4986770;28;20617;-74
2023/03/11 09:53:29;;;;;;;1.90;1.80;;;;;;;;;;4992213;28;20201;-74
2023/03/11 09:55:55;;;;;;;1.90;1.80;;;;;;;;;;4984821;28;20219;-75
2023/03/11 09:58:36;;;;;;;2.10;2.00;;;;;;;;;;4970867;28;20194;-74
2023/03/11 10:01:03;;;;;;;0.90;0.90;;;;;;;;;;4963801;28;20197;-74
2023/03/11 10:03:31;;;;;;;0.83;0.83;;;;;;;;;;4971278;28;20607;-74
2023/03/11 10:06:26;;;;;;;0.90;0.90;;;;;;;;;;4987338;28;20400;-76
2023/03/11 10:09:01;;;;;;;0.87;0.87;;;;;;;;;;4962238;28;20222;-75
2023/03/11 10:11:29;;;;;;;0.90;0.90;;;;;;;;;;4972479;28;20189;-74
2023/03/11 10:13:55;;;;;;;0.90;0.90;;;;;;;;;;4983152;28;20220;-72
2023/03/11 10:16:24;;;;;;;1.00;1.00;;;;;;;;;;4986165;28;20190;-72
2023/03/11 10:18:59;;;;;;;0.90;0.90;;;;;;;;;;4980698;28;20293;-76
2023/03/11 10:21:38;;;;;;;2.40;2.30;;;;;;;;;;4987337;28;20622;-74
2023/03/11 10:24:13;;;;;;;2.60;2.50;;;;;;;;;;4968108;28;20244;-74
2023/03/11 10:26:43;;;;;;;1.60;1.60;;;;;;;;;;4989394;28;20197;-78
2023/03/11 10:29:23;;;;;;;2.50;2.40;;;;;;;;;;4970415;28;20221;-76
2023/03/11 10:31:51;;;;;;;1.80;1.70;;;;;;;;;;4977809;28;20215;-77
2023/03/11 10:34:20;;;;;;;1.40;1.40;;;;;;;;;;4992823;28;20551;-75
2023/03/11 10:36:46;;;;;;;1.10;1.10;;;;;;;;;;4967642;28;20231;-75
2023/03/11 10:39:12;;;;;;;1.50;1.50;;;;;;;;;;4991844;28;20197;-75
2023/03/11 10:41:42;;;;;;;1.50;1.50;;;;;;;;;;4962019;28;20200;-74
2023/03/11 10:44:12;;;;;;;1.50;1.50;;;;;;;;;;4991622;28;20195;-76
2023/03/11 10:46:38;;;;;;;2.03;1.93;;;;;;;;;;4978922;28;20181;-75
2023/03/11 10:49:05;;;;;;;1.60;1.60;;;;;;;;;;4976132;28;20217;-74
2023/03/11 10:51:32;;;;;;;1.60;1.60;;;;;;;;;;4991206;28;20827;-73
2023/03/11 10:53:58;;;;;;;1.40;1.40;;;;;;;;;;4984014;28;20725;-74
2023/03/11 10:56:26;;;;;;;1.50;1.50;;;;;;;;;;4978526;28;20685;-74
2023/03/11 10:58:52;;;;;;;2.20;2.10;;;;;;;;;;4971032;28;20276;-72
2023/03/11 11:01:20;;;;;;;2.40;2.30;;;;;;;;;;4987075;28;20217;-74
2023/03/11 11:03:47;;;;;;;2.00;1.90;;;;;;;;;;4990714;28;20177;-73
2023/03/11 11:06:27;;;;;;;2.00;1.90;;;;;;;;;;4986442;28;20265;-73
2023/03/11 11:09:13;;;;;;;1.60;1.60;;;;;;;;;;4963258;28;20741;-75
2023/03/11 11:11:39;;;;;;;1.77;1.67;;;;;;;;;;4967363;28;20198;-70
2023/03/11 11:14:05;;;;;;;1.60;1.60;;;;;;;;;;4985820;28;20985;-69
2023/03/11 11:16:32;;;;;;;1.80;1.70;;;;;;;;;;4967829;28;20190;-72
2023/03/11 11:18:58;;;;;;;1.50;1.50;;;;;;;;;;4966757;28;20186;-69
2023/03/11 11:21:31;;;;;;;1.70;1.70;;;;;;;;;;4968171;28;20189;-70
2023/03/11 11:24:20;;;;;;;1.57;1.57;;;;;;;;;;4967486;28;20240;-70
2023/03/11 11:27:05;;;;;;;1.63;1.63;;;;;;;;;;4975461;28;20345;-71
2023/03/11 11:29:31;;;;;;;1.90;1.80;;;;;;;;;;4983025;28;20245;-70
2023/03/11 11:32:30;;;;;;;1.60;1.60;;;;;;;;;;4980881;28;20193;-74
2023/03/11 11:34:58;;;;;;;1.63;1.63;;;;;;;;;;4945967;28;20256;-71
2023/03/11 11:37:25;;;;;;;2.00;1.90;;;;;;;;;;4985335;28;20308;-71
2023/03/11 11:39:55;;;;;;;1.60;1.60;;;;;;;;;;4993807;28;20205;-71
2023/03/11 11:42:22;;;;;;;1.50;1.50;;;;;;;;;;4981046;28;21234;-71
2023/03/11 11:44:49;;;;;;;1.50;1.50;;;;;;;;;;4978043;28;20240;-71
2023/03/11 11:47:22;;;;;;;1.70;1.70;;;;;;;;;;4970601;28;20612;-71
2023/03/11 11:49:58;;;;;;;1.70;1.70;;;;;;;;;;4985941;28;20982;-70
2023/03/11 11:52:25;;;;;;;1.60;1.60;;;;;;;;;;4997611;28;20220;-72
2023/03/11 11:54:58;;;;;;;1.60;1.60;;;;;;;;;;4995720;28;20197;-71
2023/03/11 11:57:25;;;;;;;1.70;1.70;;;;;;;;;;4993040;28;20183;-71
2023/03/11 11:59:51;;;;;;;1.50;1.50;;;;;;;;;;4997389;28;20592;-71
2023/03/11 12:02:25;;;;;;;1.93;1.83;;;;;;;;;;4999174;28;20182;-71
2023/03/11 12:04:55;;;;;;;2.00;1.90;;;;;;;;;;4975465;28;20215;-71
2023/03/11 12:07:26;;;;;;;2.20;2.10;;;;;;;;;;4991901;28;20283;-71
2023/03/11 12:10:25;;;;;;;2.47;2.37;;;;;;;;;;4986136;28;20348;-71
2023/03/11 12:13:09;;;;;;;3.60;3.50;;;;;;;;;;4959580;28;20201;-70
2023/03/11 12:15:38;;;;;;;1.70;1.60;;;;;;;;;;4986777;28;20190;-71
2023/03/11 12:18:04;;;;;;;0.70;0.70;;;;;;;;;;4987026;28;20726;-72
2023/03/11 12:20:32;;;;;;;0.80;0.80;;;;;;;;;;4994315;28;20217;-70
2023/03/11 12:22:58;;;;;;;1.23;1.23;;;;;;;;;;4992844;28;20264;-71
2023/03/11 12:25:34;;;;;;;1.37;1.37;;;;;;;;;;4995875;28;20192;-70
2023/03/11 12:28:13;;;;;;;1.20;1.20;;;;;;;;;;4964985;28;20517;-70
2023/03/11 12:30:43;;;;;;;0.80;0.80;;;;;;;;;;4980207;28;20289;-70
2023/03/11 12:33:29;;;;;;;0.80;0.80;;;;;;;;;;4983353;28;20953;-71
2023/03/11 12:35:56;;;;;;;1.20;1.20;;;;;;;;;;4982877;28;20304;-70
2023/03/11 12:38:34;;;;;;;0.80;0.80;;;;;;;;;;4983577;28;20966;-70
2023/03/11 12:41:04;;;;;;;1.00;1.00;;;;;;;;;;4970745;28;20610;-71
2023/03/11 12:43:32;;;;;;;1.20;1.20;;;;;;;;;;4974043;28;20229;-70
2023/03/11 12:45:59;;;;;;;1.30;1.30;;;;;;;;;;4979069;28;20202;-69
2023/03/11 12:48:31;;;;;;;0.90;0.90;;;;;;;;;;4981855;28;20255;-69
2023/03/11 12:50:57;;;;;;;0.90;0.90;;;;;;;;;;4986508;28;20182;-70
2023/03/11 12:53:42;;;;;;;0.97;0.97;;;;;;;;;;4989408;28;20323;-69
2023/03/11 12:56:20;;;;;;;0.90;0.90;;;;;;;;;;4983569;28;20200;-69
2023/03/11 12:58:46;;;;;;;0.90;0.90;;;;;;;;;;4993305;28;21179;-70
2023/03/11 13:01:30;;;;;;;1.00;1.00;;;;;;;;;;4983052;28;20305;-70
2023/03/11 13:04:05;;;;;;;1.00;1.00;;;;;;;;;;4985170;28;20190;-69
2023/03/11 13:06:47;;;;;;;0.90;0.90;;;;;;;;;;4991588;28;20902;-68
2023/03/11 13:09:13;;;;;;;1.00;1.00;;;;;;;;;;4986804;28;20213;-69
2023/03/11 13:11:43;;;;;;;0.77;0.77;;;;;;;;;;4979901;28;20198;-69
2023/03/11 13:14:16;;;;;;;1.00;1.00;;;;;;;;;;4972235;28;20191;-68
2023/03/11 13:16:42;;;;;;;0.80;0.80;;;;;;;;;;4984999;28;20229;-69
2023/03/11 13:19:26;;;;;;;1.00;1.00;;;;;;;;;;4992784;28;20684;-69
2023/03/11 13:21:53;;;;;;;1.00;1.00;;;;;;;;;;4966175;28;20271;-69
2023/03/11 13:24:24;;;;;;;0.90;0.90;;;;;;;;;;4985006;28;20702;-69
2023/03/11 13:27:00;;;;;;;0.90;0.90;;;;;;;;;;4991580;28;20828;-69
2023/03/11 13:29:32;;;;;;;0.80;0.80;;;;;;;;;;4987118;28;20576;-69
2023/03/11 13:32:17;;;;;;;0.93;0.93;;;;;;;;;;4982909;28;20193;-69
2023/03/11 13:34:46;;;;;;;0.80;0.80;;;;;;;;;;4976217;28;20937;-69
2023/03/11 13:37:29;;;;;;;0.70;0.70;;;;;;;;;;4992234;28;20182;-72
2023/03/11 13:40:13;;;;;;;0.90;0.90;;;;;;;;;;4982747;28;20194;-70
2023/03/11 13:42:42;;;;;;;0.90;0.90;;;;;;;;;;4991490;28;20206;-70
2023/03/11 13:45:12;;;;;;;0.90;0.90;;;;;;;;;;4965093;28;20189;-69
2023/03/11 13:47:38;;;;;;;0.87;0.87;;;;;;;;;;4978516;28;20211;-70
2023/03/11 13:50:33;;;;;;;1.07;1.07;;;;;;;;;;4983074;28;20719;-69
2023/03/11 13:53:00;;;;;;;0.70;0.70;;;;;;;;;;4979865;28;20324;-68
2023/03/11 13:55:31;;;;;;;0.80;0.80;;;;;;;;;;4978633;28;20194;-64
2023/03/11 13:57:58;;;;;;;0.70;0.70;;;;;;;;;;4948708;28;20240;-68
2023/03/11 14:00:26;;;;;;;0.90;0.90;;;;;;;;;;4980914;28;20190;-75
2023/03/11 14:02:54;;;;;;;0.90;0.90;;;;;;;;;;4979683;28;20182;-74
2023/03/11 14:05:27;;;;;;;1.00;1.00;;;;;;;;;;4966876;28;20189;-72
2023/03/11 14:07:53;;;;;;;0.73;0.73;;;;;;;;;;4984429;28;20240;-75
2023/03/11 14:10:23;;;;;;;0.90;0.90;;;;;;;;;;4994578;28;20324;-75
2023/03/11 14:12:49;;;;;;;1.00;1.00;;;;;;;;;;4989250;28;20189;-61
2023/03/11 14:15:17;;;;;;;1.10;1.10;;;;;;;;;;4989561;28;20196;-60
2023/03/11 14:17:43;;;;;;;1.10;1.10;;;;;;;;;;4984068;28;20189;-63
2023/03/11 14:20:09;;;;;;;1.10;1.10;;;;;;;;;;4995517;28;20194;-61
2023/03/11 14:22:36;;;;;;;1.00;1.00;;;;;;;;;;4986275;28;20362;-62
2023/03/11 14:33:02;;;;;;;1.10;1.10;;;;;;;;;;3901934;23;20972;-68
2023/03/11 14:35:28;;;;;;;0.90;0.90;;;;;;;;;;4961814;28;20691;-70
2023/03/11 14:37:54;;;;;;;0.90;0.90;;;;;;;;;;4949938;28;20401;-68
2023/03/11 14:40:27;;;;;;;1.00;1.00;;;;;;;;;;4963467;28;20720;-68
2023/03/11 14:42:54;;;;;;;1.10;1.10;;;;;;;;;;4973782;28;20449;-68
2023/03/11 14:45:21;;;;;;;0.80;0.80;;;;;;;;;;4971008;28;20274;-68
2023/03/11 14:47:52;;;;;;;0.70;0.70;;;;;;;;;;4970476;28;20190;-68
2023/03/11 14:50:23;;;;;;;1.10;1.10;;;;;;;;;;4962700;28;20214;-68
2023/03/11 14:52:52;;;;;;;0.90;0.90;;;;;;;;;;4958410;28;20198;-69
2023/03/11 14:55:39;;;;;;;0.90;0.90;;;;;;;;;;4973099;28;20535;-69
2023/03/11 14:58:15;;;;;;;0.90;0.90;;;;;;;;;;4976471;28;20182;-68